KHBG

Hattiesburg Bobby L Chain Municipal Airport

Hattiesburg, Mississippi, USA
METAR KHBG 210353Z AUTO 17003KT 10SM CLR 24/22 A3006 RMK AO2 SLP176 T02390217 TSNO
Observed Flight Rules
Aug-21 @ 03:53 UTC (17 minutes ago) Visual Flight Rules
Wind Visibility Clouds
170° at 3 knots 10 miles
  • Clear skies
Temperatures Readings
Current 24°C / 75°F
Dewpoint 22°C / 72°F
Humidity 89%
Altimeter 30.06" Hg
Pressure 1017.6 hPa
Elevation 44
METAR KHBG 210353Z AUTO 17003KT 10SM CLR 24/22 A3006 RMK AO2 SLP176 T02390217 TSNO
Observed Flight Rules
Aug-21 @ 03:53 UTC
(17 minutes ago)
VFR
Wind Visibility
170° at 3 knots 10 miles
Clouds
  • Clear skies
Temperature Dewpoint
24°C / 75°F 22°C / 72°F
Humidity Altimeter Pressure
89% 30.06" Hg 1017.6 hPa